Harmony, Texas
Current Conditions -  °F | °C
As of 12:35 PM on Monday 22 Dec 2014 (Local Time) from KRFI Reporting Station
Broken Clouds Broken Clouds  
Wind Chill: 68°   Ceiling: 3000
Heat Index: 68°   Visibility: 10mi
Dew Point: 54°   Wind: 9mph
Humidity: 61%   Direction: 210°SSW
Pressure: 29.59"   Gusts: 22mph
Location:  32.2818°N, 94.951°W
Report Text: KRFI 221835Z AUTO 21008G19KT 190V250 10SM BKN030 BKN036 20/12 A2959 RMK AO2 T01980121
Loading
Personal Weather Stations






























Interactive Weather Map New forecast layout! Learn more

10-Day Weather Forecast

Advertisements
Track Severe Weather on mobile